Time;durP1;ratioP1;P1;durP2;ratioP2;P2;SDS_P1;SDS_P2;PMS_P1;PMS_P2;Temp;Humidity;BMP_temperature;BMP_pressure;BME280_temperature;BME280_humidity;BME280_pressure;Samples;Min_cycle;Max_cycle;Signal;HPM_P1;HPM_P2
2022/04/04 00:01:01;;;;;;;1.95;0.52;;;19.70;46.50;;;;;;4510190;31;20083;-71
2022/04/04 00:03:27;;;;;;;2.92;0.77;;;19.70;46.50;;;;;;4524842;31;20064;-71
2022/04/04 00:05:53;;;;;;;1.90;0.60;;;19.70;46.50;;;;;;4510034;31;20280;-71
2022/04/04 00:08:19;;;;;;;1.85;0.55;;;19.60;46.40;;;;;;4510097;31;20084;-71
2022/04/04 00:10:45;;;;;;;2.60;0.70;;;19.60;46.40;;;;;;4524659;31;20418;-71
2022/04/04 00:13:11;;;;;;;1.90;0.50;;;19.60;46.40;;;;;;4509733;31;20540;-71
2022/04/04 00:15:37;;;;;;;1.98;0.57;;;19.60;46.50;;;;;;4524390;31;20686;-71
2022/04/04 00:18:10;;;;;;;2.30;0.60;;;19.60;46.40;;;;;;4524513;31;20105;-71
2022/04/04 00:20:37;;;;;;;2.58;0.52;;;19.60;46.50;;;;;;4509695;31;20134;-71
2022/04/04 00:23:02;;;;;;;2.88;0.68;;;19.50;46.40;;;;;;4523586;31;20088;-71
2022/04/04 00:25:29;;;;;;;2.63;0.63;;;19.50;46.50;;;;;;4523908;31;20165;-71
2022/04/04 00:27:55;;;;;;;0.95;0.50;;;19.50;46.50;;;;;;4524104;31;20072;-71
2022/04/04 00:30:20;;;;;;;2.85;0.70;;;19.50;46.50;;;;;;4523769;31;20474;-71
2022/04/04 00:32:46;;;;;;;1.92;0.57;;;19.50;46.50;;;;;;4524114;31;20123;-71
2022/04/04 00:35:12;;;;;;;1.50;0.40;;;19.50;46.50;;;;;;4524071;31;20075;-71
2022/04/04 00:37:38;;;;;;;0.85;0.52;;;19.50;46.50;;;;;;4524258;31;20189;-71
2022/04/04 00:40:06;;;;;;;1.95;0.57;;;19.50;46.50;;;;;;4509699;31;20230;-71
2022/04/04 00:42:32;;;;;;;2.50;0.80;;;19.40;46.40;;;;;;4509216;31;20083;-71
2022/04/04 00:44:58;;;;;;;1.90;0.55;;;19.40;46.40;;;;;;4523852;31;20206;-71
2022/04/04 00:47:24;;;;;;;1.38;0.40;;;19.40;46.40;;;;;;4523967;31;20087;-71
2022/04/04 00:49:49;;;;;;;1.83;0.70;;;19.40;46.40;;;;;;4523916;31;20371;-71
2022/04/04 00:52:16;;;;;;;1.08;0.40;;;19.40;46.40;;;;;;4524095;31;20064;-71
2022/04/04 00:54:42;;;;;;;1.05;0.40;;;19.40;46.40;;;;;;4509070;31;20068;-71
2022/04/04 00:57:08;;;;;;;0.63;0.30;;;19.40;46.40;;;;;;4524494;31;20079;-71
2022/04/04 00:59:36;;;;;;;1.05;0.55;;;19.40;46.40;;;;;;4509747;31;20077;-71
2022/04/04 01:02:03;;;;;;;1.63;0.50;;;19.40;46.40;;;;;;4523682;31;20084;-71
2022/04/04 01:04:29;;;;;;;1.75;0.60;;;19.30;46.40;;;;;;4523821;31;20092;-71
2022/04/04 01:06:55;;;;;;;1.60;0.40;;;19.30;46.40;;;;;;4523429;31;20152;-71
2022/04/04 01:09:21;;;;;;;3.42;0.40;;;19.30;46.30;;;;;;4509067;31;20087;-71
2022/04/04 01:12:07;;;;;;;2.00;0.68;;;19.30;46.40;;;;;;4524106;31;20124;-71
2022/04/04 01:14:50;;;;;;;0.95;0.45;;;19.30;46.30;;;;;;4509277;31;20531;-71
2022/04/04 01:17:21;;;;;;;0.95;0.30;;;19.30;46.30;;;;;;4523571;31;20088;-71
2022/04/04 01:19:47;;;;;;;0.85;0.40;;;19.30;46.30;;;;;;4509389;31;20410;-71
2022/04/04 01:22:15;;;;;;;1.67;0.40;;;19.20;46.30;;;;;;4523742;31;20144;-71
2022/04/04 01:24:41;;;;;;;2.28;0.55;;;19.20;46.20;;;;;;4523232;31;20503;-71
2022/04/04 01:27:08;;;;;;;1.52;0.30;;;19.20;46.20;;;;;;4523188;31;20139;-71
2022/04/04 01:29:35;;;;;;;1.60;0.52;;;19.20;46.20;;;;;;4523563;31;20088;-71
2022/04/04 01:32:01;;;;;;;1.00;0.47;;;19.20;46.30;;;;;;4523776;31;20084;-71
2022/04/04 01:34:29;;;;;;;2.08;0.40;;;19.20;46.20;;;;;;4523396;31;20238;-71
2022/04/04 01:36:56;;;;;;;1.75;0.60;;;19.20;46.20;;;;;;4523124;31;20095;-71
2022/04/04 01:39:22;;;;;;;0.77;0.35;;;19.10;46.10;;;;;;4523206;31;20082;-71
2022/04/04 01:41:48;;;;;;;1.05;0.40;;;19.20;46.20;;;;;;4509271;31;20098;-71
2022/04/04 01:44:14;;;;;;;0.98;0.68;;;19.10;46.10;;;;;;4523297;31;20470;-71
2022/04/04 01:46:39;;;;;;;2.10;0.50;;;19.10;46.10;;;;;;4523392;31;20276;-71
2022/04/04 01:49:06;;;;;;;2.00;0.35;;;19.10;46.00;;;;;;4523368;31;20091;-71
2022/04/04 01:51:34;;;;;;;0.88;0.40;;;19.10;46.00;;;;;;4523398;31;20169;-71
2022/04/04 01:54:00;;;;;;;1.15;0.40;;;19.10;46.00;;;;;;4522839;31;20421;-71
2022/04/04 01:56:27;;;;;;;1.30;0.60;;;19.10;46.00;;;;;;4538354;31;20122;-71
2022/04/04 01:58:53;;;;;;;1.45;0.40;;;19.10;45.90;;;;;;4542580;31;20057;-71
2022/04/04 02:01:22;;;;;;;1.38;0.60;;;19.10;46.00;;;;;;4542485;31;20217;-71
2022/04/04 02:03:50;;;;;;;1.10;0.40;;;19.10;46.00;;;;;;4542511;31;20083;-71
2022/04/04 02:06:15;;;;;;;1.55;0.50;;;19.00;45.90;;;;;;4528165;31;20398;-71
2022/04/04 02:08:44;;;;;;;1.42;0.35;;;19.00;45.90;;;;;;4542716;31;20512;-70
2022/04/04 02:11:12;;;;;;;2.15;0.50;;;19.00;45.90;;;;;;4527945;31;20095;-71
2022/04/04 02:13:38;;;;;;;1.23;0.40;;;19.00;45.90;;;;;;4542564;31;20347;-71
2022/04/04 02:16:05;;;;;;;1.25;0.40;;;19.00;45.90;;;;;;4541916;31;20107;-71
2022/04/04 02:18:32;;;;;;;0.98;0.50;;;19.00;45.90;;;;;;4542006;31;20096;-71
2022/04/04 02:20:59;;;;;;;0.90;0.30;;;19.00;45.90;;;;;;4542395;31;20068;-71
2022/04/04 02:23:25;;;;;;;1.50;0.60;;;19.00;45.90;;;;;;4542141;31;20099;-71
2022/04/04 02:25:53;;;;;;;1.50;0.40;;;18.90;45.80;;;;;;4542452;31;20598;-71
2022/04/04 02:28:19;;;;;;;1.45;0.57;;;18.90;45.80;;;;;;4527394;31;20524;-71
2022/04/04 02:30:46;;;;;;;1.35;0.50;;;18.90;45.80;;;;;;4542084;31;20524;-71
2022/04/04 02:33:12;;;;;;;0.95;0.40;;;18.90;45.80;;;;;;4542411;31;20076;-71
2022/04/04 02:35:39;;;;;;;2.10;0.50;;;18.90;45.80;;;;;;4527705;31;20080;-71
2022/04/04 02:38:05;;;;;;;1.08;0.55;;;18.90;45.80;;;;;;4542230;31;20104;-71
2022/04/04 02:40:31;;;;;;;2.42;0.80;;;18.90;45.80;;;;;;4542185;31;20072;-71
2022/04/04 02:42:57;;;;;;;0.63;0.30;;;18.90;45.80;;;;;;4541395;31;20072;-71
2022/04/04 02:45:23;;;;;;;1.20;0.35;;;18.80;45.70;;;;;;4542232;31;20276;-71
2022/04/04 02:47:49;;;;;;;1.00;0.50;;;18.80;45.70;;;;;;4541842;31;20083;-71
2022/04/04 02:50:16;;;;;;;0.82;0.45;;;18.80;45.80;;;;;;4541821;31;20401;-71
2022/04/04 02:52:43;;;;;;;1.10;0.52;;;18.80;45.80;;;;;;4541851;31;20075;-71
2022/04/04 02:57:57;;;;;;;1.48;0.70;;;18.80;45.80;;;;;;4541779;31;20633;-71
2022/04/04 03:00:24;;;;;;;1.08;0.30;;;18.80;45.80;;;;;;4541470;31;20084;-71
2022/04/04 03:02:55;;;;;;;1.30;0.63;;;18.80;46.70;;;;;;4541619;31;20208;-71
2022/04/04 03:05:21;;;;;;;1.20;0.50;;;18.80;45.80;;;;;;4541693;31;20417;-71
2022/04/04 03:07:48;;;;;;;1.88;0.80;;;18.80;45.80;;;;;;4541457;31;20556;-71
2022/04/04 03:10:15;;;;;;;0.93;0.43;;;18.80;45.80;;;;;;4541283;31;20156;-71
2022/04/04 03:12:42;;;;;;;2.15;0.55;;;18.80;45.80;;;;;;4525684;31;20076;-71
2022/04/04 03:15:11;;;;;;;1.23;0.40;;;18.80;45.80;;;;;;4523976;31;20080;-71
2022/04/04 03:17:39;;;;;;;2.25;0.57;;;18.70;45.80;;;;;;4523964;31;20565;-71
2022/04/04 03:20:09;;;;;;;0.75;0.40;;;18.70;45.70;;;;;;4523970;31;20556;-71
2022/04/04 03:22:39;;;;;;;1.27;0.57;;;18.70;45.80;;;;;;4523878;31;20288;-71
2022/04/04 03:25:06;;;;;;;2.25;0.75;;;18.70;45.80;;;;;;4523768;31;20143;-71
2022/04/04 03:27:33;;;;;;;2.28;0.60;;;18.70;45.80;;;;;;4523841;31;20200;-71
2022/04/04 03:29:59;;;;;;;1.13;0.60;;;18.70;45.80;;;;;;4523986;31;20068;-71
2022/04/04 03:32:25;;;;;;;0.63;0.50;;;18.70;45.80;;;;;;4523902;31;20087;-71
2022/04/04 03:34:51;;;;;;;0.73;0.43;;;18.70;45.80;;;;;;4523716;31;20069;-71
2022/04/04 03:37:16;;;;;;;1.30;0.50;;;18.70;45.80;;;;;;4509128;31;20092;-71
2022/04/04 03:39:43;;;;;;;1.00;0.40;;;18.60;45.80;;;;;;4523836;31;20145;-71
2022/04/04 03:42:08;;;;;;;1.35;0.50;;;18.60;45.80;;;;;;4523525;31;20533;-71
2022/04/04 03:44:34;;;;;;;1.33;0.50;;;18.60;45.80;;;;;;4523372;31;20072;-71
2022/04/04 03:47:00;;;;;;;2.67;0.50;;;18.60;45.80;;;;;;4523459;31;20203;-70
2022/04/04 03:49:26;;;;;;;0.63;0.35;;;18.60;45.80;;;;;;4523500;31;20080;-71
2022/04/04 03:51:52;;;;;;;1.55;0.70;;;18.60;45.80;;;;;;4523805;31;20161;-71
2022/04/04 03:54:18;;;;;;;0.98;0.50;;;18.60;45.90;;;;;;4497046;31;20060;-71
2022/04/04 03:56:45;;;;;;;1.77;0.55;;;18.60;45.90;;;;;;4524522;31;20080;-71
2022/04/04 03:59:12;;;;;;;1.38;0.40;;;18.60;45.90;;;;;;4524422;31;20177;-71
2022/04/04 04:01:39;;;;;;;1.05;0.55;;;18.60;45.90;;;;;;4524559;31;20103;-71
2022/04/04 04:04:06;;;;;;;2.05;0.95;;;18.60;45.90;;;;;;4524557;31;20216;-70
2022/04/04 04:06:33;;;;;;;1.40;0.40;;;18.60;45.90;;;;;;4524776;31;20061;-71
2022/04/04 04:08:59;;;;;;;1.23;0.60;;;18.50;45.90;;;;;;4524491;31;20084;-71
2022/04/04 04:11:26;;;;;;;0.77;0.50;;;18.60;46.00;;;;;;4524465;31;20088;-71
2022/04/04 04:13:52;;;;;;;0.90;0.50;;;18.50;45.90;;;;;;4524588;31;20141;-71
2022/04/04 04:16:18;;;;;;;0.82;0.50;;;18.50;45.90;;;;;;4524420;31;20080;-71
2022/04/04 04:18:44;;;;;;;1.70;0.63;;;18.50;45.90;;;;;;4509567;31;20487;-70
2022/04/04 04:21:11;;;;;;;1.70;0.70;;;18.50;45.90;;;;;;4523980;31;20092;-70
2022/04/04 04:23:38;;;;;;;3.70;0.60;;;18.50;45.90;;;;;;4523641;31;20120;-70
2022/04/04 04:26:06;;;;;;;2.28;0.70;;;18.50;46.00;;;;;;4524265;31;20069;-70
2022/04/04 04:28:32;;;;;;;1.52;0.70;;;18.50;45.90;;;;;;4524233;31;20417;-70
2022/04/04 04:30:59;;;;;;;2.10;0.73;;;18.50;45.90;;;;;;4524247;31;20131;-70
2022/04/04 04:33:25;;;;;;;2.15;0.70;;;18.50;46.90;;;;;;4524139;31;20127;-70
2022/04/04 04:35:51;;;;;;;2.17;0.70;;;18.40;45.90;;;;;;4523897;31;20064;-70
2022/04/04 04:38:17;;;;;;;2.10;0.75;;;18.40;45.90;;;;;;4524096;31;20111;-70
2022/04/04 04:40:43;;;;;;;1.77;0.57;;;18.40;45.90;;;;;;4509760;31;20545;-70
2022/04/04 04:43:10;;;;;;;1.33;0.70;;;18.40;45.90;;;;;;4523743;31;20087;-70
2022/04/04 04:45:35;;;;;;;1.00;0.60;;;18.40;45.90;;;;;;4509547;31;20068;-70
2022/04/04 04:48:01;;;;;;;1.48;0.70;;;18.40;45.90;;;;;;4523699;31;20084;-70
2022/04/04 04:50:28;;;;;;;2.60;0.70;;;18.40;45.90;;;;;;4523932;31;20092;-70
2022/04/04 04:52:56;;;;;;;1.33;0.80;;;18.40;45.90;;;;;;4523573;31;20498;-70
2022/04/04 04:55:23;;;;;;;2.58;0.80;;;18.40;45.90;;;;;;4523758;31;20088;-70
2022/04/04 04:57:52;;;;;;;2.05;0.82;;;18.40;45.90;;;;;;4523784;31;20214;-70
2022/04/04 05:00:22;;;;;;;2.00;1.10;;;18.40;45.90;;;;;;4523804;31;20102;-70
2022/04/04 05:03:24;;;;;;;3.53;0.98;;;18.40;45.90;;;;;;4523667;31;20080;-70
2022/04/04 05:05:39;;;;;;;1.92;0.85;;;18.40;45.90;;;;;;4523761;31;20081;-70
2022/04/04 05:08:07;;;;;;;1.70;0.80;;;18.30;45.90;;;;;;4523773;31;20110;-70
2022/04/04 05:10:32;;;;;;;3.13;1.10;;;18.30;45.80;;;;;;4523670;31;20214;-70
2022/04/04 05:12:58;;;;;;;4.20;1.20;;;18.40;45.90;;;;;;4509048;31;20586;-70
2022/04/04 05:15:24;;;;;;;2.63;0.85;;;18.30;45.80;;;;;;4523877;31;20149;-70
2022/04/04 05:17:52;;;;;;;2.17;1.00;;;18.30;45.80;;;;;;4509273;31;20557;-70
2022/04/04 05:20:19;;;;;;;4.63;1.02;;;18.30;45.80;;;;;;4523669;31;20209;-70
2022/04/04 05:22:45;;;;;;;1.83;0.70;;;18.30;45.80;;;;;;4523611;31;20401;-70
2022/04/04 05:25:12;;;;;;;2.25;1.02;;;18.30;45.80;;;;;;4508827;31;20168;-70
2022/04/04 05:27:39;;;;;;;3.38;1.10;;;18.30;45.90;;;;;;4523625;31;20108;-70
2022/04/04 05:30:06;;;;;;;3.15;1.05;;;18.30;45.80;;;;;;4523516;31;20076;-70
2022/04/04 05:32:32;;;;;;;2.28;0.90;;;18.30;45.80;;;;;;4511919;31;20091;-70
2022/04/04 05:34:58;;;;;;;1.67;0.90;;;18.30;45.80;;;;;;4526887;31;20218;-70
2022/04/04 05:37:25;;;;;;;3.28;0.93;;;18.20;45.80;;;;;;4512667;31;20567;-70
2022/04/04 05:39:51;;;;;;;2.85;1.13;;;18.20;45.70;;;;;;4512714;31;20397;-70
2022/04/04 05:42:17;;;;;;;3.90;1.17;;;18.20;45.80;;;;;;4526869;31;20572;-70
2022/04/04 05:44:43;;;;;;;2.78;1.20;;;18.20;45.80;;;;;;4526325;31;20510;-70
2022/04/04 05:47:11;;;;;;;3.83;1.25;;;18.20;45.80;;;;;;4526654;31;20092;-70
2022/04/04 05:49:37;;;;;;;2.72;1.33;;;18.20;45.70;;;;;;4512282;31;20528;-70
2022/04/04 05:52:04;;;;;;;2.40;1.10;;;18.20;45.70;;;;;;4526585;31;20128;-70
2022/04/04 05:54:31;;;;;;;3.78;1.20;;;18.20;45.70;;;;;;4498883;31;20065;-70
2022/04/04 05:56:57;;;;;;;2.00;1.10;;;18.20;45.60;;;;;;4526548;31;20073;-71
2022/04/04 05:59:23;;;;;;;1.45;1.17;;;18.20;45.60;;;;;;4511956;31;20091;-70
2022/04/04 06:01:49;;;;;;;2.05;1.10;;;18.20;45.60;;;;;;4526575;31;20371;-70
2022/04/04 06:04:15;;;;;;;3.70;1.00;;;18.20;46.60;;;;;;4526428;31;20643;-70
2022/04/04 06:06:42;;;;;;;3.38;1.10;;;18.20;45.60;;;;;;4526345;31;20106;-70
2022/04/04 06:09:08;;;;;;;3.78;1.30;;;18.10;45.60;;;;;;4527384;31;20103;-70
2022/04/04 06:11:34;;;;;;;3.03;0.95;;;18.10;45.60;;;;;;4511920;31;20494;-70
2022/04/04 06:14:00;;;;;;;4.28;1.20;;;18.10;45.60;;;;;;4526351;31;20096;-71
2022/04/04 06:16:26;;;;;;;2.65;1.33;;;18.10;45.50;;;;;;4526451;31;20105;-70
2022/04/04 06:18:53;;;;;;;3.20;0.95;;;18.10;45.50;;;;;;4526547;31;20073;-71
2022/04/04 06:21:19;;;;;;;2.70;1.15;;;18.10;45.50;;;;;;4526137;31;20427;-71
2022/04/04 06:23:44;;;;;;;2.28;1.00;;;18.10;45.50;;;;;;4511710;31;20473;-70
2022/04/04 06:26:12;;;;;;;2.53;0.98;;;18.10;45.50;;;;;;4526077;31;20218;-71
2022/04/04 06:28:38;;;;;;;1.98;0.82;;;18.10;45.50;;;;;;4512142;31;20625;-70
2022/04/04 06:31:04;;;;;;;1.63;0.80;;;18.10;45.50;;;;;;4526247;31;20152;-70
2022/04/04 06:33:30;;;;;;;3.53;1.10;;;18.10;45.50;;;;;;4526586;31;20380;-70
2022/04/04 06:35:56;;;;;;;2.40;0.90;;;18.10;45.50;;;;;;4525973;31;20557;-70
2022/04/04 06:38:22;;;;;;;2.78;0.95;;;18.10;45.40;;;;;;4526232;31;20208;-70
2022/04/04 06:40:51;;;;;;;2.65;0.80;;;18.10;45.50;;;;;;4511550;31;20076;-70
2022/04/04 06:43:18;;;;;;;2.22;0.70;;;18.00;45.40;;;;;;4525168;31;20523;-70
2022/04/04 06:45:44;;;;;;;3.70;0.90;;;18.10;45.50;;;;;;4511596;31;20068;-70
2022/04/04 06:48:11;;;;;;;2.88;0.90;;;18.00;45.40;;;;;;4526021;31;20397;-70
2022/04/04 06:50:37;;;;;;;1.25;0.60;;;18.00;45.40;;;;;;4526301;31;20398;-70
2022/04/04 06:53:04;;;;;;;1.65;0.82;;;18.00;45.40;;;;;;4525694;31;20206;-71
2022/04/04 06:55:31;;;;;;;1.40;0.60;;;18.00;45.40;;;;;;4525531;31;20122;-70
2022/04/04 06:57:57;;;;;;;2.60;0.73;;;18.00;45.40;;;;;;4511036;31;20080;-70
2022/04/04 07:00:24;;;;;;;2.88;1.20;;;18.00;45.40;;;;;;4525798;31;20072;-70
2022/04/04 07:02:50;;;;;;;3.53;0.80;;;18.00;45.40;;;;;;4524881;31;20136;-72
2022/04/04 07:05:17;;;;;;;1.75;0.70;;;18.00;45.40;;;;;;4510612;31;20169;-70
2022/04/04 07:07:44;;;;;;;1.35;0.47;;;18.00;45.40;;;;;;4524885;31;20218;-70
2022/04/04 07:10:14;;;;;;;1.83;0.77;;;18.00;45.40;;;;;;4525521;31;20165;-70
2022/04/04 07:12:43;;;;;;;1.73;0.80;;;18.00;45.40;;;;;;4511069;31;20076;-70
2022/04/04 07:15:13;;;;;;;4.50;1.02;;;18.00;45.40;;;;;;4525233;31;20235;-71
2022/04/04 07:17:40;;;;;;;2.15;0.60;;;18.00;45.40;;;;;;4524695;31;20539;-70
2022/04/04 07:20:07;;;;;;;2.13;0.90;;;17.90;45.40;;;;;;4524776;31;20079;-70
2022/04/04 07:22:37;;;;;;;1.50;0.75;;;17.90;45.30;;;;;;4524603;31;20091;-70
2022/04/04 07:25:04;;;;;;;2.03;0.75;;;18.00;45.40;;;;;;4524404;31;20165;-70
2022/04/04 07:27:31;;;;;;;3.75;0.82;;;17.90;45.40;;;;;;4524490;31;20751;-70
2022/04/04 07:29:57;;;;;;;2.28;0.90;;;17.90;45.40;;;;;;4510100;31;20529;-69
2022/04/04 07:32:23;;;;;;;2.88;0.88;;;17.90;45.30;;;;;;4510290;31;20169;-69
2022/04/04 07:34:49;;;;;;;4.07;1.15;;;17.90;45.30;;;;;;4524337;31;20080;-69
2022/04/04 07:37:15;;;;;;;3.60;1.10;;;17.80;45.20;;;;;;4524416;31;20495;-70
2022/04/04 07:39:42;;;;;;;3.05;1.02;;;17.80;45.20;;;;;;4524615;31;20068;-70
2022/04/04 07:42:08;;;;;;;3.97;1.20;;;17.80;45.40;;;;;;4509776;31;20580;-70
2022/04/04 07:44:34;;;;;;;2.80;0.90;;;17.80;45.50;;;;;;4524420;31;20069;-70
2022/04/04 07:47:01;;;;;;;4.57;1.15;;;17.80;45.60;;;;;;4524810;31;20091;-70
2022/04/04 07:49:27;;;;;;;2.65;1.20;;;17.80;45.50;;;;;;4510249;31;20243;-70
2022/04/04 07:51:53;;;;;;;1.77;0.93;;;17.80;45.50;;;;;;4524720;31;20143;-70
2022/04/04 07:54:19;;;;;;;4.80;1.38;;;17.80;45.50;;;;;;4537275;31;20205;-70
2022/04/04 07:56:45;;;;;;;2.65;1.00;;;17.80;45.50;;;;;;4525721;31;20475;-70
2022/04/04 07:59:11;;;;;;;6.43;1.33;;;17.80;45.50;;;;;;4540161;31;20083;-70
2022/04/04 08:01:37;;;;;;;4.25;1.10;;;17.90;45.50;;;;;;4540067;31;20115;-70
2022/04/04 08:04:03;;;;;;;2.70;1.10;;;18.00;45.40;;;;;;4540159;31;20072;-70
2022/04/04 08:06:29;;;;;;;2.88;0.90;;;18.00;45.30;;;;;;4540631;31;20091;-69
2022/04/04 08:08:56;;;;;;;1.85;0.90;;;18.10;45.10;;;;;;4526184;31;20087;-70
2022/04/04 08:11:22;;;;;;;4.07;1.10;;;18.20;44.80;;;;;;4540575;31;20068;-70
2022/04/04 08:13:48;;;;;;;2.15;0.95;;;18.30;44.60;;;;;;4540517;31;20428;-70
2022/04/04 08:16:14;;;;;;;1.77;0.80;;;18.50;44.40;;;;;;4540716;31;20080;-70
2022/04/04 08:18:39;;;;;;;4.03;1.02;;;18.60;44.20;;;;;;4540682;31;20485;-70
2022/04/04 08:21:05;;;;;;;3.00;0.70;;;18.70;44.10;;;;;;4540443;31;20072;-70
2022/04/04 08:23:31;;;;;;;4.47;1.30;;;18.70;43.90;;;;;;4539696;31;20056;-70
2022/04/04 08:25:58;;;;;;;4.35;1.00;;;18.80;43.80;;;;;;4540503;31;20517;-70
2022/04/04 08:28:25;;;;;;;1.70;0.88;;;18.90;43.70;;;;;;4540358;31;20544;-69
2022/04/04 08:30:52;;;;;;;2.17;0.90;;;19.00;43.50;;;;;;4540307;31;20559;-70
2022/04/04 08:33:18;;;;;;;4.10;1.00;;;19.10;43.40;;;;;;4534138;31;20477;-70
2022/04/04 08:35:45;;;;;;;2.97;1.00;;;19.20;43.40;;;;;;4539242;31;20185;-69
2022/04/04 08:38:12;;;;;;;2.50;0.95;;;19.30;43.30;;;;;;4539909;31;20160;-71
2022/04/04 08:40:38;;;;;;;4.20;0.93;;;19.40;43.20;;;;;;4525719;31;20560;-70
2022/04/04 08:43:09;;;;;;;3.92;0.95;;;19.50;43.10;;;;;;4539813;31;20497;-70
2022/04/04 08:45:38;;;;;;;4.45;0.90;;;19.60;42.90;;;;;;4540449;31;20482;-70
2022/04/04 08:48:06;;;;;;;3.83;0.80;;;19.70;42.80;;;;;;4539770;31;20084;-69
2022/04/04 08:50:32;;;;;;;2.42;0.88;;;19.80;42.70;;;;;;4540033;31;20401;-69
2022/04/04 08:53:00;;;;;;;4.82;0.93;;;19.90;42.60;;;;;;4539954;31;20131;-69
2022/04/04 08:55:26;;;;;;;4.38;0.80;;;20.00;42.40;;;;;;4539744;31;20225;-69
2022/04/04 08:57:52;;;;;;;3.63;0.77;;;20.10;42.30;;;;;;4539676;31;20502;-69
2022/04/04 09:00:18;;;;;;;1.58;0.65;;;20.20;42.10;;;;;;4536542;31;20139;-70
2022/04/04 09:02:58;;;;;;;2.85;0.57;;;20.30;42.00;;;;;;4538194;31;20401;-70
2022/04/04 09:05:25;;;;;;;2.38;0.75;;;20.40;41.90;;;;;;4540018;31;20135;-70
2022/04/04 09:08:02;;;;;;;1.83;0.65;;;20.50;41.70;;;;;;4539820;31;20105;-70
2022/04/04 09:10:37;;;;;;;1.73;0.60;;;20.50;41.60;;;;;;4540056;31;20076;-69
2022/04/04 09:13:16;;;;;;;1.45;0.63;;;20.60;41.50;;;;;;4539906;31;20087;-70
2022/04/04 09:15:59;;;;;;;1.83;0.70;;;20.70;41.50;;;;;;4539777;31;20068;-69
2022/04/04 09:18:41;;;;;;;3.65;0.73;;;20.70;41.40;;;;;;4539853;31;20612;-69
2022/04/04 09:21:19;;;;;;;2.90;0.40;;;20.80;41.30;;;;;;4523877;31;20502;-69
2022/04/04 09:23:50;;;;;;;1.27;0.50;;;20.90;41.30;;;;;;4522700;31;20088;-70
2022/04/04 09:26:26;;;;;;;2.20;0.52;;;21.00;41.20;;;;;;4538102;31;20084;-69
2022/04/04 09:28:51;;;;;;;2.58;0.50;;;21.00;41.20;;;;;;4539539;31;20090;-69
2022/04/04 09:31:17;;;;;;;1.20;0.32;;;21.10;41.10;;;;;;4511448;31;20151;-69
2022/04/04 09:33:43;;;;;;;2.55;0.50;;;21.10;41.10;;;;;;4539002;31;20210;-69
2022/04/04 09:36:10;;;;;;;3.30;0.50;;;21.20;41.10;;;;;;4537033;31;20206;-69
2022/04/04 09:38:36;;;;;;;1.27;0.50;;;21.20;41.10;;;;;;4539024;31;20100;-70
2022/04/04 09:41:19;;;;;;;3.10;0.40;;;21.20;41.00;;;;;;4524698;31;20598;-69
2022/04/04 09:43:56;;;;;;;1.42;0.60;;;21.30;41.10;;;;;;4538625;31;20204;-69
2022/04/04 09:46:22;;;;;;;1.55;0.40;;;21.30;41.10;;;;;;4539130;31;20091;-69
2022/04/04 09:49:06;;;;;;;2.30;0.68;;;21.40;41.00;;;;;;4539539;31;20155;-69
2022/04/04 09:51:35;;;;;;;;;;;21.50;41.00;;;;;;4539524;31;20083;-71
2022/04/04 09:54:06;;;;;;;1.02;0.50;;;21.50;41.00;;;;;;4538665;31;20035;-71
2022/04/04 09:56:32;;;;;;;3.15;0.50;;;21.60;40.90;;;;;;4538744;31;20076;-71
2022/04/04 09:59:00;;;;;;;1.92;0.50;;;21.60;40.80;;;;;;4501575;31;20116;-71
2022/04/04 10:01:27;;;;;;;4.80;0.60;;;21.70;40.80;;;;;;4539324;31;20139;-70
2022/04/04 10:03:55;;;;;;;2.20;0.70;;;21.70;40.70;;;;;;4538813;31;20230;-70
2022/04/04 10:06:27;;;;;;;2.25;0.60;;;21.80;40.70;;;;;;4536722;31;20155;-69
2022/04/04 10:08:57;;;;;;;1.45;0.60;;;21.80;40.50;;;;;;4523183;31;20072;-69
2022/04/04 10:11:25;;;;;;;1.48;0.50;;;21.90;40.50;;;;;;4523142;31;20485;-69
2022/04/04 10:13:52;;;;;;;3.13;0.50;;;21.90;40.40;;;;;;4523221;31;20073;-69
2022/04/04 10:16:19;;;;;;;2.83;0.60;;;22.00;40.40;;;;;;4531091;31;20080;-70
2022/04/04 10:18:46;;;;;;;1.63;0.40;;;22.00;40.30;;;;;;4541478;31;20092;-70
2022/04/04 10:21:12;;;;;;;2.28;0.40;;;22.00;40.40;;;;;;4541680;31;20137;-69
2022/04/04 10:23:40;;;;;;;3.22;0.60;;;21.90;40.60;;;;;;4541373;31;20072;-68
2022/04/04 10:26:07;;;;;;;2.78;0.50;;;21.80;40.80;;;;;;4541627;31;20060;-69
2022/04/04 10:28:38;;;;;;;5.55;0.50;;;21.70;40.90;;;;;;4541630;31;20548;-69
2022/04/04 10:31:23;;;;;;;2.17;0.63;;;21.60;41.20;;;;;;4541609;31;20090;-69
2022/04/04 10:33:52;;;;;;;0.80;0.40;;;21.50;41.40;;;;;;4541470;31;20228;-70
2022/04/04 10:36:24;;;;;;;2.55;0.63;;;21.40;41.80;;;;;;4541645;31;20300;-70
2022/04/04 10:38:54;;;;;;;2.78;0.38;;;21.30;42.10;;;;;;4542301;31;20122;-70
2022/04/04 10:41:23;;;;;;;5.50;0.68;;;21.10;42.30;;;;;;4542234;31;20130;-69
2022/04/04 10:43:53;;;;;;;1.25;0.47;;;21.00;42.60;;;;;;4541656;31;20138;-70
2022/04/04 10:46:21;;;;;;;2.47;0.57;;;20.90;42.80;;;;;;4541952;31;20108;-70
2022/04/04 10:48:51;;;;;;;3.22;0.40;;;20.80;43.00;;;;;;4542132;31;20138;-70
2022/04/04 10:51:19;;;;;;;2.63;0.32;;;20.70;43.20;;;;;;4542359;31;20086;-70
2022/04/04 10:54:12;;;;;;;1.40;0.50;;;20.60;44.30;;;;;;4541317;31;20528;-70
2022/04/04 10:56:40;;;;;;;2.03;0.60;;;20.60;43.50;;;;;;4533733;31;20586;-70
2022/04/04 10:59:15;;;;;;;2.80;0.52;;;20.60;43.60;;;;;;4541730;31;20076;-69
2022/04/04 11:01:49;;;;;;;1.05;0.40;;;20.70;43.70;;;;;;4541660;31;20079;-70
2022/04/04 11:04:25;;;;;;;1.85;0.50;;;20.70;43.70;;;;;;4542022;31;20436;-68
2022/04/04 11:09:55;;;;;;;2.70;0.47;;;20.80;43.80;;;;;;4541712;31;20084;-70
2022/04/04 11:12:24;;;;;;;2.75;0.60;;;21.00;43.80;;;;;;4541870;31;20139;-70
2022/04/04 11:15:01;;;;;;;2.13;0.70;;;21.00;43.90;;;;;;4542125;31;20091;-70
2022/04/04 11:17:31;;;;;;;2.40;0.47;;;21.10;43.90;;;;;;4541068;31;20493;-71
2022/04/04 11:20:16;;;;;;;3.70;0.60;;;21.20;44.00;;;;;;4537389;31;20090;-70
2022/04/04 11:22:46;;;;;;;2.08;0.50;;;21.30;44.00;;;;;;4540753;31;20087;-70
2022/04/04 11:25:15;;;;;;;4.50;0.60;;;21.40;43.90;;;;;;4540412;31;20152;-71
2022/04/04 11:27:41;;;;;;;4.47;0.80;;;21.50;43.70;;;;;;4540625;31;20433;-69
2022/04/04 11:30:13;;;;;;;3.45;0.57;;;21.60;43.70;;;;;;4539998;31;20225;-71
2022/04/04 11:32:42;;;;;;;3.38;0.50;;;21.70;43.50;;;;;;4541213;31;20189;-71
2022/04/04 11:35:14;;;;;;;6.18;0.80;;;21.70;43.30;;;;;;4536922;31;20079;-70
2022/04/04 11:37:48;;;;;;;2.78;0.50;;;21.80;43.30;;;;;;4538791;31;20091;-69
2022/04/04 11:40:23;;;;;;;5.82;0.45;;;21.90;43.30;;;;;;4540419;31;20084;-77
2022/04/04 11:42:51;;;;;;;4.00;0.40;;;22.00;43.20;;;;;;4540316;31;20139;-74
2022/04/04 11:45:28;;;;;;;2.95;0.43;;;22.00;42.90;;;;;;4540470;31;20230;-70
2022/04/04 11:48:05;;;;;;;6.88;0.88;;;22.00;42.90;;;;;;4540445;31;20071;-70
2022/04/04 11:50:37;;;;;;;4.82;0.55;;;22.10;42.90;;;;;;4540991;31;20078;-70
2022/04/04 11:53:07;;;;;;;5.00;0.50;;;22.10;42.80;;;;;;4540923;31;20084;-70
2022/04/04 11:55:38;;;;;;;6.57;0.70;;;22.20;42.70;;;;;;4540216;31;20487;-70
2022/04/04 11:58:12;;;;;;;4.78;0.68;;;22.30;42.60;;;;;;4540865;31;20076;-70
2022/04/04 12:00:55;;;;;;;1.98;0.47;;;22.30;42.50;;;;;;4540720;31;20083;-70
2022/04/04 12:03:25;;;;;;;4.22;0.75;;;22.30;42.40;;;;;;4541024;31;20508;-70
2022/04/04 12:05:51;;;;;;;7.20;0.80;;;22.40;42.50;;;;;;4540752;31;20068;-70
2022/04/04 12:08:18;;;;;;;8.32;0.80;;;22.30;42.40;;;;;;4540634;31;20166;-70
2022/04/04 12:10:49;;;;;;;9.10;0.95;;;22.40;42.40;;;;;;4540701;31;20069;-69
2022/04/04 12:13:21;;;;;;;2.67;0.60;;;22.40;42.40;;;;;;4540588;31;20219;-70
2022/04/04 12:15:51;;;;;;;6.25;0.73;;;22.50;42.40;;;;;;4540654;31;20075;-70
2022/04/04 12:18:26;;;;;;;7.38;0.68;;;22.50;42.40;;;;;;4540480;31;20173;-70
2022/04/04 12:20:58;;;;;;;9.00;0.80;;;22.40;42.40;;;;;;4526218;31;20130;-70
2022/04/04 12:26:13;;;;;;;5.35;0.60;;;22.40;42.70;;;;;;4540430;31;20485;-69
2022/04/04 12:28:52;;;;;;;7.20;1.00;;;22.30;42.90;;;;;;4540351;31;20144;-70
2022/04/04 12:31:20;;;;;;;5.65;0.68;;;22.20;43.00;;;;;;4540092;31;20084;-70
2022/04/04 12:34:08;;;;;;;5.65;0.68;;;22.20;43.10;;;;;;4540002;31;20072;-70
2022/04/04 12:36:38;;;;;;;8.50;0.80;;;22.10;43.30;;;;;;4540140;31;20196;-70
2022/04/04 12:39:06;;;;;;;9.95;1.00;;;22.10;43.50;;;;;;4540271;31;20220;-71
2022/04/04 12:41:43;;;;;;;7.40;1.05;;;22.00;43.70;;;;;;4539226;31;20076;-70
2022/04/04 12:44:09;;;;;;;7.35;0.95;;;21.90;44.00;;;;;;4539134;31;20210;-69
2022/04/04 12:46:35;;;;;;;7.03;0.90;;;21.80;44.20;;;;;;4539462;31;20217;-70
2022/04/04 12:49:21;;;;;;;2.90;0.60;;;21.80;44.50;;;;;;4539545;31;20134;-70
2022/04/04 12:51:52;;;;;;;5.35;0.95;;;21.70;44.80;;;;;;4532501;31;20636;-71
2022/04/04 12:54:28;;;;;;;6.40;0.80;;;21.70;45.10;;;;;;4537917;31;20254;-70
2022/04/04 12:56:55;;;;;;;7.28;0.80;;;21.70;45.30;;;;;;4537740;31;20072;-71
2022/04/04 12:59:24;;;;;;;6.50;0.90;;;21.70;45.40;;;;;;4539202;31;20080;-70
2022/04/04 13:02:09;;;;;;;7.60;1.02;;;21.70;45.50;;;;;;4530283;31;20466;-71